Flight Track Log - Related Links

Times and Time Zones

All times are in EDT time to prevent confusion due to time zone crossing. See the CES5527 flight status page for this flight to view local times or setup timezone preferences in your user account.

Time Position Orientation Groundspeed Altitude Reporting Facility
EDT Latitude Longitude Course Direction KTS MPH feet Rate Location/Type
Thu 08:35:17 AM 31.2340 121.1170 357° North 342 394 10,900  Level FlightAware ADS-B
Thu 08:36:07 AM 31.3210 121.1170 360° North 386 444 11,800 947 Climbing FlightAware ADS-B
Thu 08:36:52 AM 31.4040 121.1170 360° North 403 464 12,400 1,455 Climbing FlightAware ADS-B
Thu 08:37:46 AM 31.4950 121.0930 347° North 387 445 14,200 1,832 Climbing FlightAware ADS-B
Thu 08:38:27 AM 31.5670 121.0550 336° Northwest 393 452 15,300 1,926 Climbing FlightAware ADS-B
Thu 08:39:07 AM 31.6360 121.0180 335° Northwest 406 467 16,800 1,000 Climbing FlightAware ADS-B
Thu 08:39:57 AM 31.7080 120.9790 335° Northwest 406 467 16,800  Level FlightAware ADS-B
Thu 08:40:46 AM 31.7790 120.9400 335° Northwest 406 467 16,800  Level FlightAware ADS-B
Thu 08:41:22 AM 31.8310 120.9110 335° Northwest 406 467 16,800  Level FlightAware ADS-B
Thu 08:42:10 AM 31.9000 120.8730 335° Northwest 406 467 16,800  Level FlightAware ADS-B
Thu 08:42:46 AM 31.9520 120.8440 335° Northwest 406 467 16,800 1,333 Level FlightAware ADS-B
Thu 08:45:00 AM 32.0341 120.6242 294° West  Level Estimated
Thu 08:46:00 AM 32.0708 120.5257 294° West  Level Estimated
Thu 08:47:00 AM 32.1073 120.4271 294° West  Level Estimated
Thu 08:48:00 AM 32.1438 120.3284 294° West  Level Estimated
Thu 08:48:46 AM 32.2220 120.1170 294° West 407 468 25,600  Level FlightAware ADS-B
Thu 08:49:30 AM 32.2280 120.0380 275° West 407 468 25,600  Level FlightAware ADS-B
Thu 08:50:12 AM 32.2360 119.9320 275° West 405 466 25,600  Level FlightAware ADS-B
Thu 08:50:57 AM 32.2430 119.8320 275° West 405 466 25,600  Level FlightAware ADS-B
Thu 08:51:27 AM 32.2420 119.7690 269° West 407 468 25,600  Level FlightAware ADS-B
Thu 08:52:07 AM 32.2210 119.6800 254° West 409 471 25,600  Level FlightAware ADS-B
Thu 08:52:53 AM 32.1980 119.5930 253° West 409 471 25,600  Level FlightAware ADS-B
Thu 08:53:27 AM 32.1740 119.5070 252° West 410 472 25,600  Level FlightAware ADS-B
Thu 08:54:12 AM 32.1490 119.4120 253° West 413 475 25,600  Level FlightAware ADS-B
Thu 08:55:07 AM 32.1180 119.2920 253° West 414 476 25,600  Level FlightAware ADS-B
Thu 08:55:47 AM 32.0950 119.2050 253° West 415 478 25,600  Level FlightAware ADS-B
Thu 08:56:27 AM 32.0740 119.1260 253° West 415 478 25,600  Level FlightAware ADS-B
Thu 08:57:17 AM 32.0500 119.0340 253° West 415 478 25,600  Level FlightAware ADS-B
Thu 08:57:53 AM 32.0330 118.9670 253° West 415 478 25,600  Level FlightAware ADS-B
Thu 08:58:30 AM 32.0150 118.8990 253° West 415 478 25,600  Level FlightAware ADS-B
Thu 08:59:06 AM 31.9980 118.8330 253° West 415 478 25,600  Level FlightAware ADS-B
Thu 08:59:54 AM 31.9750 118.7450 253° West 415 478 25,600  Level FlightAware ADS-B
Thu 09:02:00 AM 32.0684 118.5478 299° West  Level Estimated
Thu 09:03:00 AM 32.1128 118.4538 299° West  Level Estimated
Thu 09:04:00 AM 32.1571 118.3596 299° West  Level Estimated
Thu 09:05:00 AM 32.2013 118.2654 299° West  Level Estimated
Thu 09:06:00 AM 32.2455 118.1711 299° West  Level Estimated
Thu 09:07:00 AM 32.2896 118.0767 299° West  Level Estimated
Thu 09:08:00 AM 32.3336 117.9822 299° West  Level Estimated
Thu 09:09:00 AM 32.3775 117.8876 299° West  Level Estimated
Thu 09:10:00 AM 32.4214 117.7929 299° West  Level Estimated
Thu 09:11:00 AM 32.4652 117.6981 299° West  Level Estimated
Thu 09:12:00 AM 32.5089 117.6033 299° West  Level Estimated
Thu 09:13:00 AM 32.5526 117.5083 299° West  Level Estimated
Thu 09:14:00 AM 32.5962 117.4133 299° West  Level Estimated
Thu 09:15:00 AM 32.6397 117.3181 299° West  Level Estimated
Thu 09:16:00 AM 32.6832 117.2229 298° West  Level Estimated
Thu 09:17:00 AM 32.7266 117.1275 298° West  Level Estimated
Thu 09:18:00 AM 32.7699 117.0321 298° West  Level Estimated
Thu 09:19:00 AM 32.8131 116.9366 298° West  Level Estimated
Thu 09:20:00 AM 32.8562 116.8410 298° West  Level Estimated
Thu 09:21:00 AM 32.8993 116.7453 298° West  Level Estimated
Thu 09:22:00 AM 32.9423 116.6495 298° West  Level Estimated
Thu 09:23:00 AM 32.9853 116.5536 298° West  Level Estimated
Thu 09:24:00 AM 33.0281 116.4576 298° West  Level Estimated
Thu 09:25:00 AM 33.0709 116.3615 298° West  Level Estimated
Thu 09:26:00 AM 33.1137 116.2654 298° West  Level Estimated
Thu 09:27:00 AM 33.1563 116.1691 298° West  Level Estimated
Thu 09:28:00 AM 33.1989 116.0727 298° West  Level Estimated
Thu 09:29:00 AM 33.2414 115.9763 298° West  Level Estimated
Thu 09:30:00 AM 33.2838 115.8798 298° West  Level Estimated
Thu 09:31:00 AM 33.3261 115.7831 298° West  Level Estimated
Thu 09:32:00 AM 33.3654 115.6933 298° West  Level Estimated
Thu 09:33:00 AM 33.4046 115.6034 298° West  Level Estimated
Thu 09:34:00 AM 33.4437 115.5134 298° West  Level Estimated
Thu 09:35:00 AM 33.4828 115.4233 297° West  Level Estimated
Thu 09:36:00 AM 33.5218 115.3332 297° West  Level Estimated
Thu 09:37:00 AM 33.5607 115.2430 297° West  Level Estimated
Thu 09:38:00 AM 33.5996 115.1527 297° West  Level Estimated
Thu 09:39:00 AM 33.6384 115.0623 297° West  Level Estimated
Thu 09:40:00 AM 33.6771 114.9718 297° West  Level Estimated
Thu 09:41:00 AM 33.7158 114.8813 297° West  Level Estimated
Thu 09:42:00 AM 33.7544 114.7906 297° West  Level Estimated
Thu 09:43:00 AM 33.7929 114.6999 297° West  Level Estimated
Thu 09:44:00 AM 33.8314 114.6091 297° West  Level Estimated
Thu 09:45:00 AM 33.8698 114.5183 297° West  Level Estimated
Thu 09:46:00 AM 33.9081 114.4273 297° West  Level Estimated
Thu 09:47:00 AM 33.9464 114.3363 297° West  Level Estimated
Thu 09:48:00 AM 33.9846 114.2451 297° West  Level Estimated
Thu 09:49:00 AM 34.0227 114.1539 297° West  Level Estimated
Thu 09:50:00 AM 34.0608 114.0627 297° West  Level Estimated
Thu 09:51:00 AM 34.0988 113.9713 297° West  Level Estimated
Thu 09:52:00 AM 34.1367 113.8798 297° West  Level Estimated
Thu 09:53:00 AM 34.1746 113.7883 297° West  Level Estimated
Thu 09:54:00 AM 34.2124 113.6967 297° West  Level Estimated
Thu 09:55:00 AM 34.2501 113.6050 296° West  Level Estimated
Thu 09:56:00 AM 34.2878 113.5132 296° West  Level Estimated
Thu 09:57:00 AM 34.3254 113.4213 296° West  Level Estimated
Thu 09:58:00 AM 34.3629 113.3294 296° West  Level Estimated
Thu 09:59:00 AM 34.4003 113.2374 296° West  Level Estimated
Thu 10:00:00 AM 34.4425 113.1336 296° West  Level Estimated
Thu 10:01:00 AM 34.4845 113.0298 296° West  Level Estimated
Thu 10:02:00 AM 34.5264 112.9258 296° West  Level Estimated
Thu 10:03:00 AM 34.5682 112.8217 296° West  Level Estimated
Thu 10:04:00 AM 34.6100 112.7176 296° West  Level Estimated
Thu 10:05:00 AM 34.6517 112.6133 296° West  Level Estimated
Thu 10:06:00 AM 34.6933 112.5089 296° West  Level Estimated
Thu 10:07:00 AM 34.7347 112.4044 296° West  Level Estimated
Thu 10:08:00 AM 34.7411 112.3883 296° West  Level Estimated
Thu 10:09:00 AM 34.7411 112.3883 68° East  Level Estimated
Thu 10:10:00 AM 34.7411 112.3883 68° East  Level Estimated
Thu 10:11:00 AM 34.7411 112.3883 68° East  Level Estimated
Thu 10:12:00 AM 34.7411 112.3883 68° East  Level Estimated

Login

Don't have an account? Register now (free) for customized features, flight alerts, and more!